sensor_id;sensor_type;location;lat;lon;timestamp;P1;durP1;ratioP1;P2;durP2;ratioP2
10761;SDS011;5433;50.862;4.320;2023-08-12T00:00:22;7.93;;;4.20;;
10761;SDS011;5433;50.862;4.320;2023-08-12T00:02:48;5.93;;;4.03;;
10761;SDS011;5433;50.862;4.320;2023-08-12T00:05:14;8.00;;;4.53;;
10761;SDS011;5433;50.862;4.320;2023-08-12T00:07:41;5.97;;;4.22;;
10761;SDS011;5433;50.862;4.320;2023-08-12T00:10:07;7.78;;;4.20;;
10761;SDS011;5433;50.862;4.320;2023-08-12T00:12:34;6.35;;;4.35;;
10761;SDS011;5433;50.862;4.320;2023-08-12T00:15:01;7.22;;;4.40;;
10761;SDS011;5433;50.862;4.320;2023-08-12T00:17:27;7.38;;;4.30;;
10761;SDS011;5433;50.862;4.320;2023-08-12T00:19:54;7.72;;;4.63;;
10761;SDS011;5433;50.862;4.320;2023-08-12T00:22:20;6.47;;;4.32;;
10761;SDS011;5433;50.862;4.320;2023-08-12T00:24:46;8.90;;;4.70;;
10761;SDS011;5433;50.862;4.320;2023-08-12T00:27:12;7.80;;;4.25;;
10761;SDS011;5433;50.862;4.320;2023-08-12T00:29:38;8.00;;;4.85;;
10761;SDS011;5433;50.862;4.320;2023-08-12T00:32:04;7.35;;;4.57;;
10761;SDS011;5433;50.862;4.320;2023-08-12T00:34:30;8.60;;;4.30;;
10761;SDS011;5433;50.862;4.320;2023-08-12T00:36:56;10.15;;;4.80;;
10761;SDS011;5433;50.862;4.320;2023-08-12T00:39:22;8.23;;;4.90;;
10761;SDS011;5433;50.862;4.320;2023-08-12T00:41:48;7.85;;;4.80;;
10761;SDS011;5433;50.862;4.320;2023-08-12T00:44:15;7.38;;;4.88;;
10761;SDS011;5433;50.862;4.320;2023-08-12T00:46:41;7.65;;;4.35;;
10761;SDS011;5433;50.862;4.320;2023-08-12T00:49:08;7.30;;;4.60;;
10761;SDS011;5433;50.862;4.320;2023-08-12T00:51:34;9.48;;;4.78;;
10761;SDS011;5433;50.862;4.320;2023-08-12T00:54:02;7.22;;;4.45;;
10761;SDS011;5433;50.862;4.320;2023-08-12T00:56:30;9.57;;;4.63;;
10761;SDS011;5433;50.862;4.320;2023-08-12T00:58:56;8.18;;;4.65;;
10761;SDS011;5433;50.862;4.320;2023-08-12T01:01:23;8.27;;;4.75;;
10761;SDS011;5433;50.862;4.320;2023-08-12T01:03:49;7.47;;;4.38;;
10761;SDS011;5433;50.862;4.320;2023-08-12T01:06:16;7.07;;;4.90;;
10761;SDS011;5433;50.862;4.320;2023-08-12T01:08:42;8.77;;;5.18;;
10761;SDS011;5433;50.862;4.320;2023-08-12T01:11:11;8.35;;;5.10;;
10761;SDS011;5433;50.862;4.320;2023-08-12T01:13:46;9.73;;;5.18;;
10761;SDS011;5433;50.862;4.320;2023-08-12T01:16:16;9.35;;;5.35;;
10761;SDS011;5433;50.862;4.320;2023-08-12T01:18:43;9.73;;;5.57;;
10761;SDS011;5433;50.862;4.320;2023-08-12T01:21:10;9.50;;;5.82;;
10761;SDS011;5433;50.862;4.320;2023-08-12T01:23:37;8.45;;;6.05;;
10761;SDS011;5433;50.862;4.320;2023-08-12T01:26:04;9.63;;;6.30;;
10761;SDS011;5433;50.862;4.320;2023-08-12T01:28:30;9.43;;;6.25;;
10761;SDS011;5433;50.862;4.320;2023-08-12T01:30:58;10.73;;;6.57;;
10761;SDS011;5433;50.862;4.320;2023-08-12T01:35:54;9.82;;;6.45;;
10761;SDS011;5433;50.862;4.320;2023-08-12T01:38:23;10.43;;;6.03;;
10761;SDS011;5433;50.862;4.320;2023-08-12T01:40:52;7.65;;;5.63;;
10761;SDS011;5433;50.862;4.320;2023-08-12T01:43:18;8.30;;;5.70;;
10761;SDS011;5433;50.862;4.320;2023-08-12T01:45:45;8.48;;;5.78;;
10761;SDS011;5433;50.862;4.320;2023-08-12T01:48:11;10.82;;;6.25;;
10761;SDS011;5433;50.862;4.320;2023-08-12T01:50:37;11.05;;;6.35;;
10761;SDS011;5433;50.862;4.320;2023-08-12T01:53:03;8.18;;;6.05;;
10761;SDS011;5433;50.862;4.320;2023-08-12T01:55:29;11.20;;;6.32;;
10761;SDS011;5433;50.862;4.320;2023-08-12T01:57:55;10.75;;;6.43;;
10761;SDS011;5433;50.862;4.320;2023-08-12T02:00:21;8.55;;;6.00;;
10761;SDS011;5433;50.862;4.320;2023-08-12T02:02:48;9.43;;;6.10;;
10761;SDS011;5433;50.862;4.320;2023-08-12T02:05:14;9.68;;;5.97;;
10761;SDS011;5433;50.862;4.320;2023-08-12T02:07:40;8.15;;;5.97;;
10761;SDS011;5433;50.862;4.320;2023-08-12T02:10:06;8.68;;;6.13;;
10761;SDS011;5433;50.862;4.320;2023-08-12T02:12:32;7.95;;;5.93;;
10761;SDS011;5433;50.862;4.320;2023-08-12T02:14:58;9.40;;;5.70;;
10761;SDS011;5433;50.862;4.320;2023-08-12T02:17:24;9.38;;;5.82;;
10761;SDS011;5433;50.862;4.320;2023-08-12T02:19:50;8.52;;;5.65;;
10761;SDS011;5433;50.862;4.320;2023-08-12T02:22:16;10.10;;;5.88;;
10761;SDS011;5433;50.862;4.320;2023-08-12T02:24:43;10.13;;;6.47;;
10761;SDS011;5433;50.862;4.320;2023-08-12T02:27:09;11.25;;;6.07;;
10761;SDS011;5433;50.862;4.320;2023-08-12T02:29:35;10.75;;;6.78;;
10761;SDS011;5433;50.862;4.320;2023-08-12T02:32:01;10.23;;;6.28;;
10761;SDS011;5433;50.862;4.320;2023-08-12T02:34:27;10.60;;;6.03;;
10761;SDS011;5433;50.862;4.320;2023-08-12T02:36:53;12.27;;;6.68;;
10761;SDS011;5433;50.862;4.320;2023-08-12T02:39:19;9.38;;;6.03;;
10761;SDS011;5433;50.862;4.320;2023-08-12T02:41:45;10.80;;;6.55;;
10761;SDS011;5433;50.862;4.320;2023-08-12T02:44:11;9.95;;;6.25;;
10761;SDS011;5433;50.862;4.320;2023-08-12T02:46:37;11.50;;;6.72;;
10761;SDS011;5433;50.862;4.320;2023-08-12T02:49:03;11.18;;;6.63;;
10761;SDS011;5433;50.862;4.320;2023-08-12T02:51:29;10.65;;;6.85;;
10761;SDS011;5433;50.862;4.320;2023-08-12T02:53:55;9.15;;;6.40;;
10761;SDS011;5433;50.862;4.320;2023-08-12T02:56:21;10.57;;;7.07;;
10761;SDS011;5433;50.862;4.320;2023-08-12T02:58:47;9.55;;;6.93;;
10761;SDS011;5433;50.862;4.320;2023-08-12T03:01:14;10.93;;;7.10;;
10761;SDS011;5433;50.862;4.320;2023-08-12T03:03:40;11.30;;;7.55;;
10761;SDS011;5433;50.862;4.320;2023-08-12T03:06:07;12.77;;;7.28;;
10761;SDS011;5433;50.862;4.320;2023-08-12T03:08:33;12.05;;;7.60;;
10761;SDS011;5433;50.862;4.320;2023-08-12T03:11:02;15.57;;;8.00;;
10761;SDS011;5433;50.862;4.320;2023-08-12T03:13:29;14.75;;;8.68;;
10761;SDS011;5433;50.862;4.320;2023-08-12T03:15:55;13.75;;;8.50;;
10761;SDS011;5433;50.862;4.320;2023-08-12T03:18:21;14.45;;;9.10;;
10761;SDS011;5433;50.862;4.320;2023-08-12T03:20:47;13.00;;;8.75;;
10761;SDS011;5433;50.862;4.320;2023-08-12T03:23:14;14.15;;;8.80;;
10761;SDS011;5433;50.862;4.320;2023-08-12T03:25:40;11.38;;;8.90;;
10761;SDS011;5433;50.862;4.320;2023-08-12T03:28:06;15.35;;;9.75;;
10761;SDS011;5433;50.862;4.320;2023-08-12T03:30:32;16.20;;;9.80;;
10761;SDS011;5433;50.862;4.320;2023-08-12T03:32:58;14.77;;;9.95;;
10761;SDS011;5433;50.862;4.320;2023-08-12T03:35:24;13.82;;;10.63;;
10761;SDS011;5433;50.862;4.320;2023-08-12T03:37:50;16.10;;;10.68;;
10761;SDS011;5433;50.862;4.320;2023-08-12T03:40:17;15.45;;;10.65;;
10761;SDS011;5433;50.862;4.320;2023-08-12T03:42:43;17.52;;;11.00;;
10761;SDS011;5433;50.862;4.320;2023-08-12T03:45:09;15.80;;;10.48;;
10761;SDS011;5433;50.862;4.320;2023-08-12T03:47:35;12.60;;;9.45;;
10761;SDS011;5433;50.862;4.320;2023-08-12T03:50:01;12.20;;;9.50;;
10761;SDS011;5433;50.862;4.320;2023-08-12T03:52:28;13.52;;;9.48;;
10761;SDS011;5433;50.862;4.320;2023-08-12T03:54:54;12.48;;;9.00;;
10761;SDS011;5433;50.862;4.320;2023-08-12T03:57:20;9.35;;;8.23;;
10761;SDS011;5433;50.862;4.320;2023-08-12T03:59:46;10.57;;;6.63;;
10761;SDS011;5433;50.862;4.320;2023-08-12T04:02:12;8.45;;;7.18;;
10761;SDS011;5433;50.862;4.320;2023-08-12T04:04:38;7.72;;;6.57;;
10761;SDS011;5433;50.862;4.320;2023-08-12T04:07:04;8.48;;;6.72;;
10761;SDS011;5433;50.862;4.320;2023-08-12T04:09:30;7.45;;;6.75;;
10761;SDS011;5433;50.862;4.320;2023-08-12T04:11:56;9.80;;;6.93;;
10761;SDS011;5433;50.862;4.320;2023-08-12T04:14:22;8.15;;;7.35;;
10761;SDS011;5433;50.862;4.320;2023-08-12T04:16:48;8.02;;;7.22;;
10761;SDS011;5433;50.862;4.320;2023-08-12T04:19:14;8.60;;;7.70;;
10761;SDS011;5433;50.862;4.320;2023-08-12T04:21:40;7.78;;;7.07;;
10761;SDS011;5433;50.862;4.320;2023-08-12T04:24:06;9.35;;;7.38;;
10761;SDS011;5433;50.862;4.320;2023-08-12T04:26:32;7.72;;;7.00;;
10761;SDS011;5433;50.862;4.320;2023-08-12T04:28:58;8.60;;;7.80;;
10761;SDS011;5433;50.862;4.320;2023-08-12T04:31:24;7.50;;;6.80;;
10761;SDS011;5433;50.862;4.320;2023-08-12T04:33:50;7.90;;;7.13;;
10761;SDS011;5433;50.862;4.320;2023-08-12T04:36:17;7.45;;;6.75;;
10761;SDS011;5433;50.862;4.320;2023-08-12T04:38:44;7.65;;;6.82;;
10761;SDS011;5433;50.862;4.320;2023-08-12T04:41:10;7.25;;;6.55;;
10761;SDS011;5433;50.862;4.320;2023-08-12T04:43:36;7.50;;;6.80;;
10761;SDS011;5433;50.862;4.320;2023-08-12T04:46:02;7.38;;;6.63;;
10761;SDS011;5433;50.862;4.320;2023-08-12T04:48:28;7.22;;;6.57;;
10761;SDS011;5433;50.862;4.320;2023-08-12T04:50:56;7.15;;;6.45;;
10761;SDS011;5433;50.862;4.320;2023-08-12T04:53:25;7.22;;;6.32;;
10761;SDS011;5433;50.862;4.320;2023-08-12T04:55:51;7.53;;;6.82;;
10761;SDS011;5433;50.862;4.320;2023-08-12T04:58:17;7.30;;;6.60;;
10761;SDS011;5433;50.862;4.320;2023-08-12T05:00:43;7.80;;;7.00;;
10761;SDS011;5433;50.862;4.320;2023-08-12T05:03:09;8.68;;;7.10;;
10761;SDS011;5433;50.862;4.320;2023-08-12T05:05:36;8.30;;;7.40;;
10761;SDS011;5433;50.862;4.320;2023-08-12T05:08:02;10.43;;;8.75;;
10761;SDS011;5433;50.862;4.320;2023-08-12T05:10:28;10.73;;;8.75;;
10761;SDS011;5433;50.862;4.320;2023-08-12T05:12:56;10.02;;;9.00;;
10761;SDS011;5433;50.862;4.320;2023-08-12T05:15:23;10.65;;;9.00;;
10761;SDS011;5433;50.862;4.320;2023-08-12T05:17:49;13.75;;;9.30;;
10761;SDS011;5433;50.862;4.320;2023-08-12T05:20:15;11.02;;;9.73;;
10761;SDS011;5433;50.862;4.320;2023-08-12T05:22:41;11.13;;;9.43;;
10761;SDS011;5433;50.862;4.320;2023-08-12T05:25:07;10.90;;;9.73;;
10761;SDS011;5433;50.862;4.320;2023-08-12T05:27:33;10.50;;;9.35;;
10761;SDS011;5433;50.862;4.320;2023-08-12T05:29:59;11.05;;;9.85;;
10761;SDS011;5433;50.862;4.320;2023-08-12T05:32:25;12.25;;;10.30;;
10761;SDS011;5433;50.862;4.320;2023-08-12T05:34:52;12.63;;;10.85;;
10761;SDS011;5433;50.862;4.320;2023-08-12T05:37:18;11.18;;;10.07;;
10761;SDS011;5433;50.862;4.320;2023-08-12T05:39:44;12.57;;;10.68;;
10761;SDS011;5433;50.862;4.320;2023-08-12T05:42:10;14.27;;;10.50;;
10761;SDS011;5433;50.862;4.320;2023-08-12T05:44:36;12.02;;;10.82;;
10761;SDS011;5433;50.862;4.320;2023-08-12T05:47:02;12.35;;;10.68;;
10761;SDS011;5433;50.862;4.320;2023-08-12T05:49:28;12.23;;;10.85;;
10761;SDS011;5433;50.862;4.320;2023-08-12T05:51:54;12.23;;;10.38;;
10761;SDS011;5433;50.862;4.320;2023-08-12T05:54:20;12.98;;;10.45;;
10761;SDS011;5433;50.862;4.320;2023-08-12T05:56:46;11.63;;;9.85;;
10761;SDS011;5433;50.862;4.320;2023-08-12T05:59:12;9.70;;;8.75;;
10761;SDS011;5433;50.862;4.320;2023-08-12T06:01:38;9.85;;;8.30;;
10761;SDS011;5433;50.862;4.320;2023-08-12T06:04:04;10.82;;;8.57;;
10761;SDS011;5433;50.862;4.320;2023-08-12T06:06:30;9.25;;;8.27;;
10761;SDS011;5433;50.862;4.320;2023-08-12T06:08:56;8.07;;;7.38;;
10761;SDS011;5433;50.862;4.320;2023-08-12T06:11:22;9.18;;;7.50;;
10761;SDS011;5433;50.862;4.320;2023-08-12T06:13:49;9.30;;;7.82;;
10761;SDS011;5433;50.862;4.320;2023-08-12T06:16:15;9.68;;;7.35;;
10761;SDS011;5433;50.862;4.320;2023-08-12T06:18:41;9.75;;;7.13;;
10761;SDS011;5433;50.862;4.320;2023-08-12T06:21:07;8.10;;;7.05;;
10761;SDS011;5433;50.862;4.320;2023-08-12T06:23:33;9.75;;;7.10;;
10761;SDS011;5433;50.862;4.320;2023-08-12T06:25:59;9.02;;;6.25;;
10761;SDS011;5433;50.862;4.320;2023-08-12T06:28:25;8.05;;;6.50;;
10761;SDS011;5433;50.862;4.320;2023-08-12T06:30:51;9.30;;;6.40;;
10761;SDS011;5433;50.862;4.320;2023-08-12T06:33:17;7.47;;;6.05;;
10761;SDS011;5433;50.862;4.320;2023-08-12T06:35:44;7.72;;;5.80;;
10761;SDS011;5433;50.862;4.320;2023-08-12T06:38:10;6.70;;;5.65;;
10761;SDS011;5433;50.862;4.320;2023-08-12T06:40:37;6.97;;;5.72;;
10761;SDS011;5433;50.862;4.320;2023-08-12T06:43:03;6.10;;;5.35;;
10761;SDS011;5433;50.862;4.320;2023-08-12T06:45:29;6.53;;;5.13;;
10761;SDS011;5433;50.862;4.320;2023-08-12T06:47:55;6.75;;;5.22;;
10761;SDS011;5433;50.862;4.320;2023-08-12T06:50:21;6.55;;;5.18;;
10761;SDS011;5433;50.862;4.320;2023-08-12T06:52:47;6.20;;;5.10;;
10761;SDS011;5433;50.862;4.320;2023-08-12T06:55:13;7.45;;;5.07;;
10761;SDS011;5433;50.862;4.320;2023-08-12T06:57:39;5.10;;;4.25;;
10761;SDS011;5433;50.862;4.320;2023-08-12T07:00:06;5.68;;;4.90;;
10761;SDS011;5433;50.862;4.320;2023-08-12T07:02:32;9.18;;;7.43;;
10761;SDS011;5433;50.862;4.320;2023-08-12T07:04:58;14.60;;;12.10;;
10761;SDS011;5433;50.862;4.320;2023-08-12T07:07:24;18.70;;;15.70;;
10761;SDS011;5433;50.862;4.320;2023-08-12T07:09:50;17.42;;;15.57;;
10761;SDS011;5433;50.862;4.320;2023-08-12T07:12:16;18.55;;;14.77;;
10761;SDS011;5433;50.862;4.320;2023-08-12T07:14:42;20.17;;;15.77;;
10761;SDS011;5433;50.862;4.320;2023-08-12T07:17:08;17.75;;;15.85;;
10761;SDS011;5433;50.862;4.320;2023-08-12T07:19:34;19.35;;;17.17;;
10761;SDS011;5433;50.862;4.320;2023-08-12T07:22:00;20.13;;;17.35;;
10761;SDS011;5433;50.862;4.320;2023-08-12T07:24:26;17.33;;;15.32;;
10761;SDS011;5433;50.862;4.320;2023-08-12T07:26:54;16.08;;;14.38;;
10761;SDS011;5433;50.862;4.320;2023-08-12T07:29:20;13.75;;;12.35;;
10761;SDS011;5433;50.862;4.320;2023-08-12T07:31:46;13.90;;;12.40;;
10761;SDS011;5433;50.862;4.320;2023-08-12T07:34:12;16.17;;;14.40;;
10761;SDS011;5433;50.862;4.320;2023-08-12T07:36:39;18.70;;;15.30;;
10761;SDS011;5433;50.862;4.320;2023-08-12T07:39:05;18.85;;;16.67;;
10761;SDS011;5433;50.862;4.320;2023-08-12T07:41:32;19.05;;;16.10;;
10761;SDS011;5433;50.862;4.320;2023-08-12T07:43:58;19.13;;;17.02;;
10761;SDS011;5433;50.862;4.320;2023-08-12T07:46:24;19.17;;;17.05;;
10761;SDS011;5433;50.862;4.320;2023-08-12T07:48:50;17.92;;;16.08;;
10761;SDS011;5433;50.862;4.320;2023-08-12T07:51:16;15.52;;;13.95;;
10761;SDS011;5433;50.862;4.320;2023-08-12T07:53:42;14.45;;;13.05;;
10761;SDS011;5433;50.862;4.320;2023-08-12T07:56:08;14.88;;;13.18;;
10761;SDS011;5433;50.862;4.320;2023-08-12T07:58:34;14.60;;;13.20;;
10761;SDS011;5433;50.862;4.320;2023-08-12T08:01:00;13.80;;;12.55;;
10761;SDS011;5433;50.862;4.320;2023-08-12T08:03:26;12.88;;;11.77;;
10761;SDS011;5433;50.862;4.320;2023-08-12T08:05:52;10.50;;;9.60;;
10761;SDS011;5433;50.862;4.320;2023-08-12T08:08:19;8.70;;;7.95;;
10761;SDS011;5433;50.862;4.320;2023-08-12T08:10:45;9.60;;;7.93;;
10761;SDS011;5433;50.862;4.320;2023-08-12T08:13:11;8.18;;;7.47;;
10761;SDS011;5433;50.862;4.320;2023-08-12T08:15:37;8.88;;;7.97;;
10761;SDS011;5433;50.862;4.320;2023-08-12T08:18:03;9.10;;;8.20;;
10761;SDS011;5433;50.862;4.320;2023-08-12T08:20:29;8.80;;;7.95;;
10761;SDS011;5433;50.862;4.320;2023-08-12T08:22:56;8.95;;;8.00;;
10761;SDS011;5433;50.862;4.320;2023-08-12T08:25:22;8.80;;;8.00;;
10761;SDS011;5433;50.862;4.320;2023-08-12T08:27:48;9.32;;;8.43;;
10761;SDS011;5433;50.862;4.320;2023-08-12T08:30:14;9.02;;;8.30;;
10761;SDS011;5433;50.862;4.320;2023-08-12T08:32:40;8.70;;;7.90;;
10761;SDS011;5433;50.862;4.320;2023-08-12T08:35:06;8.27;;;7.47;;
10761;SDS011;5433;50.862;4.320;2023-08-12T08:37:32;7.93;;;7.28;;
10761;SDS011;5433;50.862;4.320;2023-08-12T08:39:58;7.50;;;6.90;;
10761;SDS011;5433;50.862;4.320;2023-08-12T08:42:24;7.93;;;7.22;;
10761;SDS011;5433;50.862;4.320;2023-08-12T08:44:52;7.50;;;6.90;;
10761;SDS011;5433;50.862;4.320;2023-08-12T08:47:25;5.68;;;5.18;;
10761;SDS011;5433;50.862;4.320;2023-08-12T08:49:51;5.28;;;4.65;;
10761;SDS011;5433;50.862;4.320;2023-08-12T08:52:18;5.15;;;4.65;;
10761;SDS011;5433;50.862;4.320;2023-08-12T08:54:44;4.55;;;4.15;;
10761;SDS011;5433;50.862;4.320;2023-08-12T08:57:10;4.50;;;4.05;;
10761;SDS011;5433;50.862;4.320;2023-08-12T08:59:37;5.43;;;4.40;;
10761;SDS011;5433;50.862;4.320;2023-08-12T09:02:04;4.32;;;3.92;;
10761;SDS011;5433;50.862;4.320;2023-08-12T09:04:30;4.30;;;3.90;;
10761;SDS011;5433;50.862;4.320;2023-08-12T09:06:56;3.97;;;3.42;;
10761;SDS011;5433;50.862;4.320;2023-08-12T09:09:24;3.80;;;3.40;;
10761;SDS011;5433;50.862;4.320;2023-08-12T09:11:51;4.32;;;3.67;;
10761;SDS011;5433;50.862;4.320;2023-08-12T09:14:18;3.90;;;3.38;;
10761;SDS011;5433;50.862;4.320;2023-08-12T09:16:44;3.20;;;2.80;;
10761;SDS011;5433;50.862;4.320;2023-08-12T09:19:10;3.85;;;2.70;;
10761;SDS011;5433;50.862;4.320;2023-08-12T09:21:36;3.00;;;2.42;;
10761;SDS011;5433;50.862;4.320;2023-08-12T09:24:02;3.00;;;2.45;;
10761;SDS011;5433;50.862;4.320;2023-08-12T09:26:29;4.50;;;2.65;;
10761;SDS011;5433;50.862;4.320;2023-08-12T09:28:55;4.20;;;2.63;;
10761;SDS011;5433;50.862;4.320;2023-08-12T09:31:25;3.30;;;2.28;;
10761;SDS011;5433;50.862;4.320;2023-08-12T09:33:53;3.58;;;2.38;;
10761;SDS011;5433;50.862;4.320;2023-08-12T09:36:20;3.30;;;2.10;;
10761;SDS011;5433;50.862;4.320;2023-08-12T09:38:47;3.13;;;2.00;;
10761;SDS011;5433;50.862;4.320;2023-08-12T09:41:13;3.25;;;1.92;;
10761;SDS011;5433;50.862;4.320;2023-08-12T09:43:42;2.95;;;1.80;;
10761;SDS011;5433;50.862;4.320;2023-08-12T09:46:12;4.07;;;1.77;;
10761;SDS011;5433;50.862;4.320;2023-08-12T09:48:41;6.32;;;1.85;;
10761;SDS011;5433;50.862;4.320;2023-08-12T09:51:07;5.05;;;1.90;;
10761;SDS011;5433;50.862;4.320;2023-08-12T09:53:33;3.33;;;1.40;;
10761;SDS011;5433;50.862;4.320;2023-08-12T09:56:06;2.75;;;1.60;;
10761;SDS011;5433;50.862;4.320;2023-08-12T09:58:33;5.13;;;1.83;;
10761;SDS011;5433;50.862;4.320;2023-08-12T10:01:00;2.58;;;1.58;;
10761;SDS011;5433;50.862;4.320;2023-08-12T10:03:27;5.30;;;2.05;;
10761;SDS011;5433;50.862;4.320;2023-08-12T10:05:54;3.45;;;1.70;;
10761;SDS011;5433;50.862;4.320;2023-08-12T10:08:20;3.67;;;1.77;;
10761;SDS011;5433;50.862;4.320;2023-08-12T10:10:46;3.65;;;1.50;;
10761;SDS011;5433;50.862;4.320;2023-08-12T10:13:12;5.30;;;3.25;;
10761;SDS011;5433;50.862;4.320;2023-08-12T10:15:38;3.28;;;1.67;;
10761;SDS011;5433;50.862;4.320;2023-08-12T10:18:05;2.83;;;1.55;;
10761;SDS011;5433;50.862;4.320;2023-08-12T10:20:31;3.78;;;1.60;;
10761;SDS011;5433;50.862;4.320;2023-08-12T10:22:57;2.97;;;1.63;;
10761;SDS011;5433;50.862;4.320;2023-08-12T10:25:25;3.28;;;1.63;;
10761;SDS011;5433;50.862;4.320;2023-08-12T10:27:57;3.90;;;1.67;;
10761;SDS011;5433;50.862;4.320;2023-08-12T10:30:23;4.35;;;1.77;;
10761;SDS011;5433;50.862;4.320;2023-08-12T10:32:49;3.38;;;1.95;;
10761;SDS011;5433;50.862;4.320;2023-08-12T10:35:15;5.20;;;1.50;;
10761;SDS011;5433;50.862;4.320;2023-08-12T10:37:42;4.07;;;1.70;;
10761;SDS011;5433;50.862;4.320;2023-08-12T10:40:19;4.60;;;1.70;;
10761;SDS011;5433;50.862;4.320;2023-08-12T10:42:47;4.63;;;1.88;;
10761;SDS011;5433;50.862;4.320;2023-08-12T10:45:14;2.17;;;1.73;;
10761;SDS011;5433;50.862;4.320;2023-08-12T10:47:47;3.15;;;1.65;;
10761;SDS011;5433;50.862;4.320;2023-08-12T10:50:17;4.13;;;1.73;;
10761;SDS011;5433;50.862;4.320;2023-08-12T10:52:44;4.35;;;1.80;;
10761;SDS011;5433;50.862;4.320;2023-08-12T10:57:49;7.30;;;2.55;;
10761;SDS011;5433;50.862;4.320;2023-08-12T11:00:19;7.03;;;1.67;;
10761;SDS011;5433;50.862;4.320;2023-08-12T11:02:52;3.47;;;1.60;;
10761;SDS011;5433;50.862;4.320;2023-08-12T11:05:18;5.05;;;1.80;;
10761;SDS011;5433;50.862;4.320;2023-08-12T11:07:46;4.20;;;1.48;;
10761;SDS011;5433;50.862;4.320;2023-08-12T11:10:16;5.93;;;1.60;;
10761;SDS011;5433;50.862;4.320;2023-08-12T11:18:01;4.38;;;1.40;;
10761;SDS011;5433;50.862;4.320;2023-08-12T11:20:28;2.83;;;1.60;;
10761;SDS011;5433;50.862;4.320;2023-08-12T11:22:54;5.07;;;1.60;;
10761;SDS011;5433;50.862;4.320;2023-08-12T11:25:20;3.65;;;1.40;;
10761;SDS011;5433;50.862;4.320;2023-08-12T11:27:47;5.32;;;1.60;;
10761;SDS011;5433;50.862;4.320;2023-08-12T11:30:14;5.15;;;1.58;;
10761;SDS011;5433;50.862;4.320;2023-08-12T11:32:41;8.25;;;3.38;;
10761;SDS011;5433;50.862;4.320;2023-08-12T11:35:08;4.88;;;1.80;;
10761;SDS011;5433;50.862;4.320;2023-08-12T11:37:36;5.25;;;1.75;;
10761;SDS011;5433;50.862;4.320;2023-08-12T11:40:03;3.80;;;1.50;;
10761;SDS011;5433;50.862;4.320;2023-08-12T11:42:29;3.72;;;1.58;;
10761;SDS011;5433;50.862;4.320;2023-08-12T11:44:55;3.78;;;1.60;;
10761;SDS011;5433;50.862;4.320;2023-08-12T11:47:21;3.28;;;1.63;;
10761;SDS011;5433;50.862;4.320;2023-08-12T11:49:48;5.95;;;1.50;;
10761;SDS011;5433;50.862;4.320;2023-08-12T11:52:14;4.15;;;1.50;;
10761;SDS011;5433;50.862;4.320;2023-08-12T11:54:40;4.03;;;1.73;;
10761;SDS011;5433;50.862;4.320;2023-08-12T11:57:06;4.03;;;1.77;;
10761;SDS011;5433;50.862;4.320;2023-08-12T11:59:32;3.42;;;1.60;;
10761;SDS011;5433;50.862;4.320;2023-08-12T12:02:01;5.47;;;1.65;;
10761;SDS011;5433;50.862;4.320;2023-08-12T12:04:27;2.78;;;1.30;;
10761;SDS011;5433;50.862;4.320;2023-08-12T12:06:53;5.07;;;1.70;;
10761;SDS011;5433;50.862;4.320;2023-08-12T12:09:19;5.85;;;1.65;;
10761;SDS011;5433;50.862;4.320;2023-08-12T12:11:46;2.35;;;1.50;;
10761;SDS011;5433;50.862;4.320;2023-08-12T12:14:12;3.35;;;1.27;;
10761;SDS011;5433;50.862;4.320;2023-08-12T12:16:40;2.92;;;1.42;;
10761;SDS011;5433;50.862;4.320;2023-08-12T12:19:20;4.10;;;1.50;;
10761;SDS011;5433;50.862;4.320;2023-08-12T12:21:47;3.95;;;1.40;;
10761;SDS011;5433;50.862;4.320;2023-08-12T12:24:13;3.15;;;1.40;;
10761;SDS011;5433;50.862;4.320;2023-08-12T12:26:40;3.75;;;1.48;;
10761;SDS011;5433;50.862;4.320;2023-08-12T12:29:06;2.58;;;1.27;;
10761;SDS011;5433;50.862;4.320;2023-08-12T12:31:33;3.20;;;1.30;;
10761;SDS011;5433;50.862;4.320;2023-08-12T12:34:03;4.50;;;1.42;;
10761;SDS011;5433;50.862;4.320;2023-08-12T12:36:29;4.13;;;1.30;;
10761;SDS011;5433;50.862;4.320;2023-08-12T12:38:56;4.78;;;1.50;;
10761;SDS011;5433;50.862;4.320;2023-08-12T12:41:22;4.10;;;1.55;;
10761;SDS011;5433;50.862;4.320;2023-08-12T12:43:48;5.15;;;1.33;;
10761;SDS011;5433;50.862;4.320;2023-08-12T12:46:14;4.57;;;1.60;;
10761;SDS011;5433;50.862;4.320;2023-08-12T12:48:41;3.55;;;1.50;;
10761;SDS011;5433;50.862;4.320;2023-08-12T12:51:07;5.03;;;1.58;;
10761;SDS011;5433;50.862;4.320;2023-08-12T12:53:33;3.55;;;1.65;;
10761;SDS011;5433;50.862;4.320;2023-08-12T12:56:00;3.67;;;1.60;;
10761;SDS011;5433;50.862;4.320;2023-08-12T12:58:30;4.68;;;1.80;;
10761;SDS011;5433;50.862;4.320;2023-08-12T13:00:57;3.13;;;1.70;;
10761;SDS011;5433;50.862;4.320;2023-08-12T13:03:23;4.72;;;1.70;;
10761;SDS011;5433;50.862;4.320;2023-08-12T13:05:49;4.90;;;1.85;;
10761;SDS011;5433;50.862;4.320;2023-08-12T13:08:15;4.63;;;1.77;;
10761;SDS011;5433;50.862;4.320;2023-08-12T13:10:41;3.30;;;1.95;;
10761;SDS011;5433;50.862;4.320;2023-08-12T13:13:07;4.50;;;1.92;;
10761;SDS011;5433;50.862;4.320;2023-08-12T13:15:34;4.18;;;2.10;;
10761;SDS011;5433;50.862;4.320;2023-08-12T13:18:00;2.65;;;2.13;;
10761;SDS011;5433;50.862;4.320;2023-08-12T13:20:26;4.53;;;2.28;;
10761;SDS011;5433;50.862;4.320;2023-08-12T13:22:52;4.97;;;2.20;;
10761;SDS011;5433;50.862;4.320;2023-08-12T13:25:18;3.72;;;2.45;;
10761;SDS011;5433;50.862;4.320;2023-08-12T13:27:44;4.90;;;1.90;;
10761;SDS011;5433;50.862;4.320;2023-08-12T13:30:10;5.30;;;2.10;;
10761;SDS011;5433;50.862;4.320;2023-08-12T13:32:37;2.45;;;1.77;;
10761;SDS011;5433;50.862;4.320;2023-08-12T13:35:03;5.20;;;1.92;;
10761;SDS011;5433;50.862;4.320;2023-08-12T13:37:30;3.90;;;1.98;;
10761;SDS011;5433;50.862;4.320;2023-08-12T13:39:56;4.35;;;2.00;;
10761;SDS011;5433;50.862;4.320;2023-08-12T13:42:22;3.13;;;2.00;;
10761;SDS011;5433;50.862;4.320;2023-08-12T13:44:48;3.53;;;2.05;;
10761;SDS011;5433;50.862;4.320;2023-08-12T13:47:14;3.95;;;1.98;;
10761;SDS011;5433;50.862;4.320;2023-08-12T13:49:40;2.13;;;1.75;;
10761;SDS011;5433;50.862;4.320;2023-08-12T13:52:06;3.45;;;1.85;;
10761;SDS011;5433;50.862;4.320;2023-08-12T13:54:32;4.35;;;1.73;;
10761;SDS011;5433;50.862;4.320;2023-08-12T13:56:58;4.28;;;1.77;;
10761;SDS011;5433;50.862;4.320;2023-08-12T13:59:24;6.63;;;2.00;;
10761;SDS011;5433;50.862;4.320;2023-08-12T14:01:50;5.85;;;2.00;;
10761;SDS011;5433;50.862;4.320;2023-08-12T14:04:16;4.45;;;1.88;;
10761;SDS011;5433;50.862;4.320;2023-08-12T14:06:42;4.60;;;1.80;;
10761;SDS011;5433;50.862;4.320;2023-08-12T14:09:09;4.90;;;1.77;;
10761;SDS011;5433;50.862;4.320;2023-08-12T14:11:37;5.20;;;1.80;;
10761;SDS011;5433;50.862;4.320;2023-08-12T14:14:03;6.15;;;1.98;;
10761;SDS011;5433;50.862;4.320;2023-08-12T14:16:29;3.78;;;1.70;;
10761;SDS011;5433;50.862;4.320;2023-08-12T14:18:55;4.43;;;1.55;;
10761;SDS011;5433;50.862;4.320;2023-08-12T14:21:21;2.95;;;1.50;;
10761;SDS011;5433;50.862;4.320;2023-08-12T14:23:47;6.07;;;1.80;;
10761;SDS011;5433;50.862;4.320;2023-08-12T14:26:13;4.05;;;1.50;;
10761;SDS011;5433;50.862;4.320;2023-08-12T14:28:39;3.20;;;1.50;;
10761;SDS011;5433;50.862;4.320;2023-08-12T14:31:05;4.22;;;1.85;;
10761;SDS011;5433;50.862;4.320;2023-08-12T14:33:31;4.97;;;2.05;;
10761;SDS011;5433;50.862;4.320;2023-08-12T14:35:58;4.95;;;1.80;;
10761;SDS011;5433;50.862;4.320;2023-08-12T14:38:24;5.88;;;1.70;;
10761;SDS011;5433;50.862;4.320;2023-08-12T14:40:50;3.55;;;1.60;;
10761;SDS011;5433;50.862;4.320;2023-08-12T14:43:16;4.40;;;1.98;;
10761;SDS011;5433;50.862;4.320;2023-08-12T14:45:44;5.90;;;1.80;;
10761;SDS011;5433;50.862;4.320;2023-08-12T14:48:13;6.68;;;1.80;;
10761;SDS011;5433;50.862;4.320;2023-08-12T14:50:43;3.88;;;1.58;;
10761;SDS011;5433;50.862;4.320;2023-08-12T14:53:09;4.75;;;1.80;;
10761;SDS011;5433;50.862;4.320;2023-08-12T14:55:35;5.50;;;1.70;;
10761;SDS011;5433;50.862;4.320;2023-08-12T14:58:01;3.33;;;1.70;;
10761;SDS011;5433;50.862;4.320;2023-08-12T15:00:27;4.80;;;1.80;;